Time;durP1;ratioP1;P1;durP2;ratioP2;P2;SDS_P1;SDS_P2;PMS_P1;PMS_P2;Temp;Humidity;BMP_temperature;BMP_pressure;BME280_temperature;BME280_humidity;BME280_pressure;Samples;Min_cycle;Max_cycle;Signal;HPM_P1;HPM_P2
2024/01/29 00:00:04;;;;;;;12.20;2.10;;;9.90;99.90;;;;;;5068173;28;20048;-49
2024/01/29 00:02:32;;;;;;;10.43;2.53;;;10.00;99.90;;;;;;5068101;28;20311;-46
2024/01/29 00:04:57;;;;;;;9.20;2.72;;;10.00;99.90;;;;;;5068050;28;20101;-46
2024/01/29 00:07:23;;;;;;;16.75;4.32;;;10.00;99.90;;;;;;5067717;28;20050;-46
2024/01/29 00:09:49;;;;;;;16.52;5.28;;;10.00;99.90;;;;;;5068030;28;20093;-47
2024/01/29 00:12:14;;;;;;;10.10;3.03;;;10.00;99.90;;;;;;5067552;28;20298;-48
2024/01/29 00:14:40;;;;;;;15.43;3.75;;;10.00;99.90;;;;;;5068026;28;20024;-48
2024/01/29 00:17:05;;;;;;;14.45;4.90;;;10.00;99.90;;;;;;5066341;28;20102;-47
2024/01/29 00:19:31;;;;;;;19.95;6.80;;;10.00;99.90;;;;;;5067694;28;20051;-46
2024/01/29 00:21:57;;;;;;;19.40;6.22;;;9.90;99.90;;;;;;5067526;28;20045;-47
2024/01/29 00:24:22;;;;;;;17.92;5.35;;;9.90;99.90;;;;;;5067270;28;20024;-47
2024/01/29 00:26:50;;;;;;;10.52;3.75;;;9.90;99.90;;;;;;5067265;28;20049;-46
2024/01/29 00:29:15;;;;;;;10.98;3.20;;;9.90;99.90;;;;;;5067623;28;20033;-46
2024/01/29 00:31:41;;;;;;;10.27;3.33;;;9.90;99.90;;;;;;5067519;28;20085;-47
2024/01/29 00:34:06;;;;;;;10.93;4.05;;;9.90;99.90;;;;;;5067328;28;20044;-47
2024/01/29 00:36:33;;;;;;;15.18;4.47;;;9.90;99.90;;;;;;5067467;28;20025;-47
2024/01/29 00:38:58;;;;;;;10.02;3.55;;;9.80;99.90;;;;;;5066311;28;20025;-50
2024/01/29 00:41:24;;;;;;;12.48;3.88;;;9.80;99.90;;;;;;5067311;28;20082;-49
2024/01/29 00:43:50;;;;;;;10.63;3.28;;;9.80;99.90;;;;;;5067169;28;20078;-47
2024/01/29 00:46:16;;;;;;;12.60;2.35;;;9.80;99.90;;;;;;5067224;28;20029;-49
2024/01/29 00:48:42;;;;;;;9.02;2.22;;;9.90;99.90;;;;;;5067190;28;20225;-46
2024/01/29 00:51:08;;;;;;;7.22;1.70;;;9.80;99.90;;;;;;5067266;28;20029;-47
2024/01/29 00:53:33;;;;;;;3.67;1.50;;;9.80;99.90;;;;;;5067354;28;20193;-47
2024/01/29 00:55:59;;;;;;;8.57;1.88;;;9.80;99.90;;;;;;5067120;28;20033;-49
2024/01/29 00:58:24;;;;;;;8.20;1.80;;;9.80;99.90;;;;;;5066857;28;20036;-47
2024/01/29 01:00:50;;;;;;;5.30;1.48;;;9.80;99.90;;;;;;5067140;28;20064;-47
2024/01/29 01:03:16;;;;;;;7.82;1.98;;;9.70;99.90;;;;;;5067034;28;20313;-46
2024/01/29 01:05:42;;;;;;;11.13;2.40;;;9.70;99.90;;;;;;5066934;28;20250;-47
2024/01/29 01:08:07;;;;;;;18.65;3.55;;;9.60;99.90;;;;;;5066704;28;20056;-47
2024/01/29 01:10:33;;;;;;;11.07;3.47;;;9.60;99.90;;;;;;5066487;28;20037;-48
2024/01/29 01:12:59;;;;;;;9.10;2.42;;;9.60;99.90;;;;;;5065643;28;20048;-46
2024/01/29 01:15:25;;;;;;;6.97;1.83;;;9.60;99.90;;;;;;5066588;28;20090;-47
2024/01/29 01:17:51;;;;;;;7.25;1.75;;;9.70;99.90;;;;;;5066653;28;20040;-46
2024/01/29 01:20:16;;;;;;;7.18;1.73;;;9.70;99.90;;;;;;5066538;28;20036;-47
2024/01/29 01:22:42;;;;;;;5.82;1.90;;;9.70;99.90;;;;;;5066621;28;20033;-47
2024/01/29 01:25:08;;;;;;;8.35;1.50;;;9.70;99.90;;;;;;5066576;28;20040;-46
2024/01/29 01:27:33;;;;;;;8.80;1.77;;;9.70;99.90;;;;;;5066185;28;20052;-47
2024/01/29 01:29:59;;;;;;;9.88;2.17;;;9.70;99.90;;;;;;5066433;28;20025;-46
2024/01/29 01:32:25;;;;;;;9.73;2.00;;;9.70;99.90;;;;;;5066346;28;20096;-48
2024/01/29 01:34:51;;;;;;;5.88;1.63;;;9.70;99.90;;;;;;5066427;28;20036;-49
2024/01/29 01:37:17;;;;;;;6.78;1.38;;;9.70;99.90;;;;;;5066394;28;20024;-49
2024/01/29 01:39:42;;;;;;;5.40;1.48;;;9.70;99.90;;;;;;5066250;28;20043;-50
2024/01/29 01:42:08;;;;;;;9.05;1.52;;;9.60;99.90;;;;;;5065211;28;20024;-50
2024/01/29 01:44:34;;;;;;;7.63;1.55;;;9.60;99.90;;;;;;5048376;28;20017;-48
2024/01/29 01:46:59;;;;;;;13.00;2.00;;;9.60;99.90;;;;;;5048438;28;20029;-47
2024/01/29 01:49:26;;;;;;;6.55;1.50;;;9.50;99.90;;;;;;5065166;28;20021;-48
2024/01/29 01:51:51;;;;;;;5.03;1.83;;;9.50;99.90;;;;;;5065885;28;20024;-47
2024/01/29 01:54:17;;;;;;;9.35;1.88;;;9.50;99.90;;;;;;5064988;28;20265;-47
2024/01/29 01:56:43;;;;;;;9.20;1.65;;;9.50;99.90;;;;;;5066090;28;20029;-47
2024/01/29 01:59:10;;;;;;;10.73;1.80;;;9.50;99.90;;;;;;5065038;28;20024;-47
2024/01/29 02:01:36;;;;;;;9.00;2.13;;;9.50;99.90;;;;;;5065885;28;20040;-49
2024/01/29 02:04:01;;;;;;;8.93;2.17;;;9.50;99.90;;;;;;5065943;28;20031;-50
2024/01/29 02:06:27;;;;;;;11.20;1.88;;;9.50;99.90;;;;;;5064978;28;20040;-49
2024/01/29 02:08:54;;;;;;;8.70;1.95;;;9.50;99.90;;;;;;5064718;28;20044;-49
2024/01/29 02:11:19;;;;;;;6.40;1.80;;;9.40;99.90;;;;;;5065470;28;20092;-50
2024/01/29 02:13:48;;;;;;;5.65;1.98;;;9.40;99.90;;;;;;5065564;28;20024;-49
2024/01/29 02:16:14;;;;;;;7.60;1.60;;;9.40;99.90;;;;;;5065328;28;20045;-53
2024/01/29 02:18:39;;;;;;;9.73;1.60;;;9.40;99.90;;;;;;5065205;28;20273;-54
2024/01/29 02:21:05;;;;;;;5.13;1.52;;;9.40;99.90;;;;;;5065696;28;20024;-53
2024/01/29 02:23:30;;;;;;;7.60;1.65;;;9.40;99.90;;;;;;5047842;28;20067;-54
2024/01/29 02:25:56;;;;;;;9.70;1.52;;;9.30;99.90;;;;;;5065444;28;20029;-55
2024/01/29 02:28:27;;;;;;;6.00;2.13;;;9.30;99.90;;;;;;5065538;28;20095;-54
2024/01/29 02:30:53;;;;;;;10.57;1.92;;;9.30;99.90;;;;;;5065615;28;20033;-54
2024/01/29 02:33:19;;;;;;;6.28;1.58;;;9.30;99.90;;;;;;5064443;28;20308;-54
2024/01/29 02:35:48;;;;;;;5.95;1.50;;;9.20;99.90;;;;;;5065698;28;20027;-54
2024/01/29 02:38:13;;;;;;;5.80;1.80;;;9.20;99.90;;;;;;5065511;28;20090;-52
2024/01/29 02:40:39;;;;;;;5.90;1.75;;;9.10;99.90;;;;;;5065498;28;20068;-54
2024/01/29 02:43:05;;;;;;;6.15;1.73;;;9.10;99.90;;;;;;5065510;28;20036;-54
2024/01/29 02:45:30;;;;;;;7.43;2.83;;;9.10;99.90;;;;;;5065581;28;20060;-54
2024/01/29 02:47:56;;;;;;;5.85;1.30;;;9.00;99.90;;;;;;5065065;28;20036;-54
2024/01/29 02:50:29;;;;;;;4.93;1.33;;;9.00;99.90;;;;;;5064377;28;20040;-52
2024/01/29 02:52:55;;;;;;;6.82;1.80;;;9.00;99.90;;;;;;5065481;28;20298;-53
2024/01/29 02:55:20;;;;;;;8.80;2.63;;;9.00;99.90;;;;;;5065326;28;20032;-54
2024/01/29 02:57:46;;;;;;;5.88;1.50;;;9.00;99.90;;;;;;5065455;28;20298;-54
2024/01/29 03:00:12;;;;;;;9.02;2.08;;;9.00;99.90;;;;;;5065168;28;20037;-54
2024/01/29 03:02:38;;;;;;;5.75;1.80;;;8.90;99.90;;;;;;5065397;28;20083;-54
2024/01/29 03:05:04;;;;;;;7.88;1.63;;;9.00;99.90;;;;;;5065296;28;20029;-55
2024/01/29 03:07:29;;;;;;;7.65;1.42;;;9.00;99.90;;;;;;5065092;28;20036;-54
2024/01/29 03:09:55;;;;;;;8.60;1.55;;;9.00;99.90;;;;;;5065368;28;20047;-55
2024/01/29 03:12:21;;;;;;;5.68;1.45;;;9.00;99.90;;;;;;5065342;28;20021;-54
2024/01/29 03:14:46;;;;;;;7.40;1.42;;;9.00;99.90;;;;;;5065206;28;20092;-54
2024/01/29 03:17:12;;;;;;;7.28;1.48;;;9.00;99.90;;;;;;5064621;28;20071;-55
2024/01/29 03:19:38;;;;;;;8.75;1.60;;;9.00;99.90;;;;;;5064888;28;20025;-55
2024/01/29 03:22:04;;;;;;;5.80;1.98;;;8.90;99.90;;;;;;5064934;28;20095;-53
2024/01/29 03:24:29;;;;;;;9.32;1.90;;;9.00;99.90;;;;;;5065210;28;20330;-54
2024/01/29 03:26:55;;;;;;;7.70;2.42;;;9.00;99.90;;;;;;5065121;28;20182;-54
2024/01/29 03:29:21;;;;;;;6.47;1.88;;;9.00;99.90;;;;;;5065589;28;20312;-54
2024/01/29 03:31:46;;;;;;;4.65;1.33;;;9.00;99.90;;;;;;5068543;28;20025;-55
2024/01/29 03:34:12;;;;;;;5.00;2.00;;;9.00;99.90;;;;;;5068695;28;20028;-55
2024/01/29 03:36:38;;;;;;;7.55;1.80;;;9.00;99.90;;;;;;5067649;28;20037;-55
2024/01/29 03:39:03;;;;;;;4.25;1.60;;;9.00;99.90;;;;;;5068643;28;20025;-55
2024/01/29 03:41:29;;;;;;;9.07;1.85;;;8.90;99.90;;;;;;5068690;28;20326;-54
2024/01/29 03:43:55;;;;;;;6.88;1.63;;;8.90;99.90;;;;;;5068434;28;20043;-55
2024/01/29 03:46:20;;;;;;;4.53;1.50;;;8.90;99.90;;;;;;5068401;28;20068;-54
2024/01/29 03:48:46;;;;;;;3.88;1.33;;;9.00;99.90;;;;;;5068373;28;20144;-53
2024/01/29 03:51:12;;;;;;;5.60;1.40;;;8.90;99.90;;;;;;5068447;28;20049;-53
2024/01/29 03:53:37;;;;;;;4.60;1.20;;;9.00;99.90;;;;;;5068064;28;20302;-53
2024/01/29 03:56:03;;;;;;;5.82;1.80;;;9.00;99.90;;;;;;5068132;28;20013;-53
2024/01/29 03:58:29;;;;;;;7.75;1.70;;;8.90;99.90;;;;;;5068152;28;20207;-54
2024/01/29 04:00:54;;;;;;;6.18;1.48;;;8.90;99.90;;;;;;5068200;28;20028;-54
2024/01/29 04:03:20;;;;;;;8.68;1.42;;;8.90;99.90;;;;;;5068221;28;20029;-55
2024/01/29 04:05:46;;;;;;;4.55;1.40;;;8.90;99.90;;;;;;5068062;28;20110;-54
2024/01/29 04:08:11;;;;;;;5.60;1.58;;;8.90;99.90;;;;;;5067596;28;20037;-52
2024/01/29 04:10:37;;;;;;;4.78;1.30;;;8.90;99.90;;;;;;5067971;28;20035;-54
2024/01/29 04:13:03;;;;;;;3.38;1.27;;;8.80;99.90;;;;;;5067984;28;20037;-54
2024/01/29 04:15:29;;;;;;;4.25;1.20;;;8.80;99.90;;;;;;5067718;28;20206;-54
2024/01/29 04:17:55;;;;;;;6.75;1.70;;;8.80;99.90;;;;;;5067875;28;20029;-54
2024/01/29 04:20:20;;;;;;;4.35;1.35;;;8.70;99.90;;;;;;5067748;28;20037;-54
2024/01/29 04:22:46;;;;;;;6.97;1.50;;;8.70;99.90;;;;;;5066787;28;20052;-54
2024/01/29 04:25:12;;;;;;;7.10;2.10;;;8.70;99.90;;;;;;5067821;28;20048;-54
2024/01/29 04:27:38;;;;;;;6.43;1.67;;;8.70;99.90;;;;;;5067620;28;20044;-54
2024/01/29 04:30:04;;;;;;;10.15;1.70;;;8.70;99.90;;;;;;5067523;28;20029;-53
2024/01/29 04:32:30;;;;;;;5.60;1.73;;;8.70;99.90;;;;;;5067659;28;20078;-55
2024/01/29 04:34:56;;;;;;;7.75;1.77;;;8.70;99.90;;;;;;5066625;28;20033;-53
2024/01/29 04:37:21;;;;;;;9.30;1.35;;;8.60;99.90;;;;;;5067407;28;20024;-54
2024/01/29 04:39:47;;;;;;;7.32;1.40;;;8.60;99.90;;;;;;5066873;28;20178;-54
2024/01/29 04:42:12;;;;;;;7.00;2.42;;;8.50;99.90;;;;;;5067194;28;20047;-55
2024/01/29 04:44:38;;;;;;;6.90;1.85;;;8.50;99.90;;;;;;5067367;28;20052;-53
2024/01/29 04:47:04;;;;;;;7.82;1.90;;;8.50;99.90;;;;;;5067286;28;20027;-54
2024/01/29 04:49:29;;;;;;;9.73;2.28;;;8.50;99.90;;;;;;5067255;28;20096;-54
2024/01/29 04:51:55;;;;;;;5.25;1.77;;;8.50;99.90;;;;;;5067174;28;20039;-54
2024/01/29 04:54:21;;;;;;;9.35;1.83;;;8.50;99.90;;;;;;5067094;28;20025;-54
2024/01/29 04:56:46;;;;;;;9.60;2.05;;;8.50;99.90;;;;;;5067196;28;20063;-53
2024/01/29 04:59:12;;;;;;;10.70;2.17;;;8.50;99.90;;;;;;5067129;28;20036;-54
2024/01/29 05:01:37;;;;;;;10.68;1.77;;;8.40;99.90;;;;;;5067186;28;20021;-53
2024/01/29 05:04:03;;;;;;;9.73;1.77;;;8.40;99.90;;;;;;5066939;28;20146;-55
2024/01/29 05:06:29;;;;;;;10.77;2.65;;;8.50;99.90;;;;;;5066996;28;20025;-53
2024/01/29 05:08:55;;;;;;;6.70;1.95;;;8.50;99.90;;;;;;5066836;28;20025;-54
2024/01/29 05:11:21;;;;;;;11.48;1.67;;;8.50;99.90;;;;;;5066409;28;20195;-54
2024/01/29 05:13:46;;;;;;;9.15;1.95;;;8.50;99.90;;;;;;5066792;28;20039;-55
2024/01/29 05:16:13;;;;;;;6.20;1.65;;;8.50;99.90;;;;;;5066387;28;20061;-54
2024/01/29 05:18:39;;;;;;;7.13;1.58;;;8.40;99.90;;;;;;5066768;28;20032;-55
2024/01/29 05:21:05;;;;;;;7.55;1.73;;;8.50;99.90;;;;;;5066702;28;20056;-54
2024/01/29 05:23:30;;;;;;;8.63;1.75;;;8.40;99.90;;;;;;5065457;28;20036;-54
2024/01/29 05:25:56;;;;;;;6.63;1.80;;;8.40;99.90;;;;;;5066272;28;20037;-53
2024/01/29 05:28:22;;;;;;;8.43;1.33;;;8.40;99.90;;;;;;5066840;28;20029;-54
2024/01/29 05:30:48;;;;;;;9.05;1.88;;;8.40;99.90;;;;;;5066542;28;20024;-53
2024/01/29 05:33:13;;;;;;;8.25;1.60;;;8.40;99.90;;;;;;5066484;28;20029;-53
2024/01/29 05:35:39;;;;;;;7.20;1.60;;;8.40;99.90;;;;;;5065275;28;20078;-54
2024/01/29 05:38:05;;;;;;;9.07;1.63;;;8.40;99.90;;;;;;5066545;28;20044;-54
2024/01/29 05:40:30;;;;;;;5.88;1.50;;;8.40;99.90;;;;;;5066355;28;20056;-54
2024/01/29 05:42:56;;;;;;;7.03;1.60;;;8.40;99.90;;;;;;5065304;28;20052;-53
2024/01/29 05:45:22;;;;;;;4.57;1.45;;;8.40;99.90;;;;;;5065887;28;20328;-54
2024/01/29 05:47:47;;;;;;;4.95;1.55;;;8.40;99.90;;;;;;5066042;28;20036;-54
2024/01/29 05:50:14;;;;;;;3.60;1.30;;;8.40;99.90;;;;;;5066270;28;20074;-53
2024/01/29 05:52:39;;;;;;;5.45;1.20;;;8.30;99.90;;;;;;5064249;28;20021;-54
2024/01/29 05:55:05;;;;;;;3.92;1.17;;;8.40;99.90;;;;;;5066005;28;20052;-55
2024/01/29 05:57:31;;;;;;;8.13;1.55;;;8.30;99.90;;;;;;5065419;28;20033;-55
2024/01/29 05:59:57;;;;;;;4.90;1.10;;;8.30;99.90;;;;;;5065758;28;20092;-53
2024/01/29 06:02:22;;;;;;;4.82;1.10;;;8.30;99.90;;;;;;5065925;28;20247;-55
2024/01/29 06:04:48;;;;;;;5.47;1.50;;;8.30;99.90;;;;;;5065962;28;20175;-52
2024/01/29 06:07:13;;;;;;;3.45;1.20;;;8.30;99.90;;;;;;5065830;28;20028;-53
2024/01/29 06:09:39;;;;;;;6.47;1.65;;;8.30;99.90;;;;;;5065773;28;20036;-54
2024/01/29 06:12:05;;;;;;;3.63;1.38;;;8.30;99.90;;;;;;5065850;28;20036;-54
2024/01/29 06:14:31;;;;;;;4.90;1.23;;;8.20;99.90;;;;;;5064835;28;20045;-54
2024/01/29 06:16:57;;;;;;;4.45;1.20;;;8.20;99.90;;;;;;5064320;28;20110;-51
2024/01/29 06:19:23;;;;;;;4.07;1.20;;;8.10;99.90;;;;;;5065590;28;20029;-54
2024/01/29 06:21:49;;;;;;;2.88;1.15;;;8.10;99.90;;;;;;5065620;28;20170;-53
2024/01/29 06:24:15;;;;;;;6.13;2.15;;;8.10;99.90;;;;;;5065748;28;20052;-54
2024/01/29 06:26:41;;;;;;;3.60;1.10;;;8.10;99.90;;;;;;5065590;28;20025;-54
2024/01/29 06:29:07;;;;;;;6.43;1.33;;;8.10;99.90;;;;;;5065519;28;20039;-54
2024/01/29 06:31:32;;;;;;;3.65;1.20;;;8.10;99.90;;;;;;5064647;28;20036;-55
2024/01/29 06:33:58;;;;;;;2.63;1.10;;;8.10;99.90;;;;;;5065550;28;20025;-54
2024/01/29 06:36:24;;;;;;;5.93;1.45;;;8.10;99.90;;;;;;5065651;28;20088;-54
2024/01/29 06:38:49;;;;;;;3.65;1.20;;;8.10;99.90;;;;;;5064435;28;20040;-55
2024/01/29 06:41:22;;;;;;;3.72;1.20;;;8.20;99.90;;;;;;5065412;28;20028;-55
2024/01/29 06:43:48;;;;;;;7.43;2.10;;;8.20;99.90;;;;;;5065307;28;20152;-54
2024/01/29 06:46:14;;;;;;;6.90;1.58;;;8.10;99.90;;;;;;5065131;28;20039;-54
2024/01/29 06:48:39;;;;;;;4.15;1.45;;;8.10;99.90;;;;;;5065427;28;20036;-55
2024/01/29 06:51:05;;;;;;;7.60;1.83;;;8.20;99.90;;;;;;5065316;28;20286;-55
2024/01/29 06:53:34;;;;;;;5.15;1.50;;;8.10;99.90;;;;;;5064638;28;20033;-54
2024/01/29 06:56:02;;;;;;;10.82;1.90;;;8.10;99.90;;;;;;5065060;28;20063;-54
2024/01/29 06:58:28;;;;;;;7.90;1.67;;;8.10;99.90;;;;;;5065390;28;20071;-53
2024/01/29 07:00:57;;;;;;;10.35;2.50;;;8.10;99.90;;;;;;5064820;28;20044;-54
2024/01/29 07:03:22;;;;;;;9.98;1.90;;;8.10;99.90;;;;;;5064905;28;20044;-54
2024/01/29 07:05:48;;;;;;;7.32;1.65;;;8.10;99.90;;;;;;5067979;28;20025;-52
2024/01/29 07:08:14;;;;;;;8.32;1.70;;;8.20;99.90;;;;;;5069186;28;20082;-53
2024/01/29 07:10:39;;;;;;;7.38;1.90;;;8.10;99.90;;;;;;5069086;28;20033;-54
2024/01/29 07:13:05;;;;;;;9.93;2.00;;;8.10;99.90;;;;;;5068931;28;20028;-53
2024/01/29 07:15:31;;;;;;;9.98;2.15;;;8.10;99.90;;;;;;5068928;28;20098;-54
2024/01/29 07:17:57;;;;;;;8.93;1.90;;;8.00;99.90;;;;;;5068631;28;20294;-53
2024/01/29 07:20:22;;;;;;;7.15;1.70;;;8.00;99.90;;;;;;5068906;28;20171;-54
2024/01/29 07:22:48;;;;;;;5.50;1.75;;;8.00;99.90;;;;;;5068973;28;20091;-53
2024/01/29 07:25:14;;;;;;;8.95;1.95;;;8.00;99.90;;;;;;5068968;28;20091;-53
2024/01/29 07:27:39;;;;;;;9.45;1.58;;;8.00;99.90;;;;;;5068698;28;20040;-54
2024/01/29 07:30:06;;;;;;;8.48;1.67;;;8.00;99.90;;;;;;5068525;28;20029;-54
2024/01/29 07:32:31;;;;;;;7.32;1.73;;;8.00;99.90;;;;;;5068201;28;20078;-53
2024/01/29 07:34:58;;;;;;;7.68;1.60;;;8.00;99.90;;;;;;5068643;28;20021;-53
2024/01/29 07:37:24;;;;;;;14.27;2.60;;;8.00;99.90;;;;;;5068467;28;20064;-53
2024/01/29 07:39:51;;;;;;;8.05;2.63;;;7.90;99.90;;;;;;5068493;28;20078;-56
2024/01/29 07:42:16;;;;;;;13.77;2.55;;;7.90;99.90;;;;;;5068650;28;20017;-53
2024/01/29 07:44:43;;;;;;;10.75;2.38;;;7.90;99.90;;;;;;5068268;28;20029;-54
2024/01/29 07:47:08;;;;;;;11.63;2.20;;;8.00;99.90;;;;;;5066915;28;20017;-54
2024/01/29 07:49:34;;;;;;;14.57;3.03;;;8.00;99.90;;;;;;5068354;28;20036;-54
2024/01/29 07:51:59;;;;;;;12.57;2.45;;;8.10;99.90;;;;;;5068057;28;20040;-53
2024/01/29 07:54:25;;;;;;;15.98;2.47;;;8.10;99.90;;;;;;5068259;28;20029;-54
2024/01/29 07:56:51;;;;;;;14.75;2.70;;;8.00;99.90;;;;;;5068300;28;20017;-54
2024/01/29 07:59:16;;;;;;;10.13;2.08;;;8.00;99.90;;;;;;5068158;28;20168;-53
2024/01/29 08:01:44;;;;;;;17.33;3.33;;;7.90;99.90;;;;;;5068127;28;20167;-51
2024/01/29 08:04:10;;;;;;;13.52;3.08;;;8.00;99.90;;;;;;5067678;28;20032;-52
2024/01/29 08:06:36;;;;;;;19.55;4.82;;;7.70;99.90;;;;;;5068097;28;20056;-53
2024/01/29 08:09:04;;;;;;;19.90;5.10;;;7.80;99.90;;;;;;5067967;28;20033;-53
2024/01/29 08:11:30;;;;;;;17.95;4.07;;;7.90;99.90;;;;;;5067969;28;20036;-50
2024/01/29 08:13:56;;;;;;;12.27;3.13;;;7.90;99.90;;;;;;5068105;28;20079;-56
2024/01/29 08:16:22;;;;;;;19.65;4.22;;;7.90;99.90;;;;;;5066647;28;20049;-54
2024/01/29 08:18:47;;;;;;;16.13;3.28;;;7.90;99.90;;;;;;5068405;28;20135;-54
2024/01/29 08:21:13;;;;;;;14.13;2.95;;;7.90;99.90;;;;;;5067692;28;20224;-54
2024/01/29 08:23:39;;;;;;;15.50;3.10;;;7.90;99.90;;;;;;5067458;28;20088;-54
2024/01/29 08:26:05;;;;;;;13.68;2.70;;;7.90;99.90;;;;;;5067325;28;20029;-54
2024/01/29 08:28:30;;;;;;;16.40;2.70;;;7.90;99.90;;;;;;5067573;28;20309;-55
2024/01/29 08:30:58;;;;;;;12.63;3.50;;;8.00;99.90;;;;;;5067408;28;20021;-52
2024/01/29 08:33:25;;;;;;;17.33;3.88;;;7.90;99.90;;;;;;5067374;28;20025;-55
2024/01/29 08:35:51;;;;;;;11.30;2.90;;;7.90;99.90;;;;;;5067485;28;20096;-55
2024/01/29 08:38:16;;;;;;;17.02;3.92;;;7.90;99.90;;;;;;5067125;28;20083;-55
2024/01/29 08:40:42;;;;;;;11.43;3.78;;;7.90;99.90;;;;;;5067226;28;20021;-55
2024/01/29 08:43:08;;;;;;;12.55;2.30;;;7.90;99.90;;;;;;5067262;28;20028;-55
2024/01/29 08:45:34;;;;;;;10.88;2.30;;;7.90;99.90;;;;;;5066751;28;20021;-55
2024/01/29 08:48:03;;;;;;;8.68;2.22;;;7.90;99.90;;;;;;5066163;28;20217;-54
2024/01/29 08:50:30;;;;;;;11.52;2.22;;;7.90;99.90;;;;;;5065837;28;20033;-55
2024/01/29 08:52:55;;;;;;;10.63;3.58;;;8.00;99.90;;;;;;5066869;28;20032;-54
2024/01/29 08:55:22;;;;;;;12.82;2.08;;;8.00;99.90;;;;;;5066844;28;20025;-55
2024/01/29 08:57:48;;;;;;;8.32;1.80;;;7.90;99.90;;;;;;5065848;28;20033;-54
2024/01/29 09:00:14;;;;;;;12.25;2.47;;;7.90;99.90;;;;;;5066872;28;20025;-54
2024/01/29 09:02:41;;;;;;;6.63;1.65;;;7.90;99.90;;;;;;5066904;28;20021;-54
2024/01/29 09:05:07;;;;;;;7.35;1.55;;;7.90;99.90;;;;;;5065722;28;20164;-54
2024/01/29 09:07:33;;;;;;;8.70;2.83;;;7.90;99.90;;;;;;5065552;28;20075;-55
2024/01/29 09:09:59;;;;;;;13.27;2.10;;;7.80;99.90;;;;;;5066588;28;20029;-55
2024/01/29 09:12:24;;;;;;;12.02;2.47;;;7.90;99.90;;;;;;5066567;28;20123;-57
2024/01/29 09:14:50;;;;;;;8.52;2.30;;;7.90;99.90;;;;;;5066795;28;20020;-55
2024/01/29 09:17:15;;;;;;;8.40;2.00;;;7.90;99.90;;;;;;5066556;28;20360;-55
2024/01/29 09:19:45;;;;;;;8.13;2.00;;;7.80;99.90;;;;;;5065271;28;20028;-55
2024/01/29 09:22:11;;;;;;;6.20;1.80;;;7.80;99.90;;;;;;5066590;28;20032;-54
2024/01/29 09:24:36;;;;;;;4.05;1.63;;;7.80;99.90;;;;;;5065565;28;20028;-55
2024/01/29 09:27:02;;;;;;;9.88;1.58;;;7.80;99.90;;;;;;5066445;28;20093;-55
2024/01/29 09:29:28;;;;;;;7.63;2.47;;;7.80;99.90;;;;;;5066388;28;20275;-55
2024/01/29 09:31:53;;;;;;;10.02;2.20;;;7.80;99.90;;;;;;5066184;28;20263;-56
2024/01/29 09:34:20;;;;;;;7.93;1.70;;;7.80;99.90;;;;;;5065356;28;20036;-56
2024/01/29 09:36:46;;;;;;;8.27;2.40;;;7.80;99.90;;;;;;5066313;28;20029;-56
2024/01/29 09:39:12;;;;;;;6.15;1.67;;;7.90;99.90;;;;;;5065221;28;20168;-56
2024/01/29 09:41:42;;;;;;;8.65;1.90;;;7.80;99.90;;;;;;5066234;28;20037;-56
2024/01/29 09:44:09;;;;;;;6.68;1.63;;;7.80;99.90;;;;;;5065913;28;20040;-56
2024/01/29 09:46:37;;;;;;;4.95;1.77;;;7.90;99.90;;;;;;5066295;28;20029;-55
2024/01/29 09:49:03;;;;;;;7.85;1.90;;;7.90;99.90;;;;;;5064908;28;20230;-56
2024/01/29 09:51:29;;;;;;;6.20;1.85;;;7.80;99.90;;;;;;5064943;28;20017;-56
2024/01/29 09:53:55;;;;;;;7.13;1.83;;;7.90;99.90;;;;;;5048331;28;20049;-56
2024/01/29 09:56:20;;;;;;;6.75;1.67;;;7.90;99.90;;;;;;5066115;28;20044;-56
2024/01/29 09:58:46;;;;;;;9.60;1.88;;;7.90;99.90;;;;;;5064679;28;20103;-55
2024/01/29 10:01:13;;;;;;;11.95;2.70;;;7.90;99.90;;;;;;5065801;28;20041;-56
2024/01/29 10:03:39;;;;;;;10.00;2.20;;;7.90;99.90;;;;;;5048406;28;20033;-56
2024/01/29 10:06:05;;;;;;;10.80;1.88;;;7.90;99.90;;;;;;5064616;28;20021;-56
2024/01/29 10:08:32;;;;;;;11.88;2.03;;;7.90;99.90;;;;;;5065467;28;20029;-57
2024/01/29 10:10:57;;;;;;;8.10;2.20;;;7.90;99.90;;;;;;5048090;28;20036;-55
2024/01/29 10:13:23;;;;;;;6.80;1.67;;;7.90;99.90;;;;;;5064606;28;20052;-55
2024/01/29 10:15:50;;;;;;;6.80;1.55;;;7.90;99.90;;;;;;5065479;28;20091;-56
2024/01/29 10:18:16;;;;;;;12.40;2.13;;;8.00;99.90;;;;;;5064249;28;20072;-56
2024/01/29 10:20:41;;;;;;;7.95;1.65;;;7.90;99.90;;;;;;5065396;28;20217;-56
2024/01/29 10:23:07;;;;;;;13.05;7.93;;;7.90;99.90;;;;;;5065412;28;20026;-56
2024/01/29 10:25:35;;;;;;;11.48;1.83;;;7.90;99.90;;;;;;5065262;28;20290;-56
2024/01/29 10:28:13;;;;;;;6.75;1.85;;;7.90;99.90;;;;;;5064859;28;20037;-56
2024/01/29 10:30:39;;;;;;;12.63;1.90;;;8.00;99.90;;;;;;5064825;28;20025;-56
2024/01/29 10:33:06;;;;;;;7.68;1.50;;;7.90;99.90;;;;;;5065217;28;20088;-56
2024/01/29 10:35:32;;;;;;;8.05;1.63;;;7.90;99.90;;;;;;5065095;28;20066;-55
2024/01/29 10:38:01;;;;;;;7.57;1.40;;;7.90;99.90;;;;;;5066216;28;20064;-55
2024/01/29 10:40:27;;;;;;;10.02;2.15;;;8.00;99.90;;;;;;5071863;28;20106;-56
2024/01/29 10:42:53;;;;;;;8.35;1.92;;;8.00;99.90;;;;;;5053957;28;20294;-55
2024/01/29 10:45:19;;;;;;;4.40;1.23;;;8.00;99.90;;;;;;5054201;28;20036;-55
2024/01/29 10:47:48;;;;;;;9.40;1.70;;;8.00;99.90;;;;;;5071473;28;20082;-57
2024/01/29 10:50:18;;;;;;;8.27;1.85;;;8.00;99.90;;;;;;5070722;28;20067;-55
2024/01/29 10:52:44;;;;;;;;;;;8.00;99.90;;;;;;5071406;28;20070;-55
2024/01/29 10:55:10;;;;;;;11.25;1.98;;;8.00;99.90;;;;;;5071822;28;19912;-55
2024/01/29 10:57:36;;;;;;;5.70;1.60;;;8.00;99.90;;;;;;5071648;28;20059;-55
2024/01/29 11:00:03;;;;;;;6.97;1.60;;;8.00;99.90;;;;;;5037590;28;20282;-54
2024/01/29 11:02:29;;;;;;;6.13;1.45;;;8.00;99.90;;;;;;5070779;28;20060;-55
2024/01/29 11:04:55;;;;;;;5.30;1.58;;;8.00;99.90;;;;;;5071722;28;20084;-56
2024/01/29 11:07:22;;;;;;;9.63;2.00;;;8.00;99.90;;;;;;5071355;28;20032;-56
2024/01/29 11:10:06;;;;;;;10.02;2.00;;;8.00;99.90;;;;;;5070521;28;20120;-56
2024/01/29 11:12:32;;;;;;;10.07;3.42;;;8.00;99.90;;;;;;5071622;28;20036;-56
2024/01/29 11:15:04;;;;;;;6.03;2.20;;;8.00;99.90;;;;;;5070832;28;20112;-56
2024/01/29 11:17:29;;;;;;;4.45;1.80;;;8.10;99.90;;;;;;5070309;28;20073;-56
2024/01/29 11:20:00;;;;;;;5.43;1.70;;;8.00;99.90;;;;;;5071697;28;20279;-55
2024/01/29 11:22:37;;;;;;;6.65;1.23;;;8.00;99.90;;;;;;5071554;28;20039;-56
2024/01/29 11:25:14;;;;;;;4.53;1.50;;;8.10;99.90;;;;;;5071624;28;20049;-56
2024/01/29 11:27:41;;;;;;;4.35;1.23;;;8.00;99.90;;;;;;5071304;28;20086;-55
2024/01/29 11:30:20;;;;;;;5.38;1.50;;;8.00;99.90;;;;;;5071563;28;20028;-57
2024/01/29 11:32:49;;;;;;;5.32;1.63;;;8.00;99.90;;;;;;5070683;28;20047;-55
2024/01/29 11:35:26;;;;;;;5.07;1.55;;;8.00;99.90;;;;;;5071582;28;20021;-55
2024/01/29 11:37:52;;;;;;;6.35;2.03;;;8.00;99.90;;;;;;5070180;28;20108;-54
2024/01/29 11:40:43;;;;;;;6.32;2.00;;;8.10;99.90;;;;;;5070287;28;20028;-55
2024/01/29 11:43:17;;;;;;;5.78;1.45;;;8.10;99.90;;;;;;5070392;28;20047;-55
2024/01/29 11:45:50;;;;;;;5.95;1.60;;;8.10;99.90;;;;;;5071060;28;20091;-55
2024/01/29 11:48:17;;;;;;;6.15;1.52;;;8.10;99.90;;;;;;5071047;28;20048;-55
2024/01/29 11:50:47;;;;;;;5.30;1.20;;;8.00;99.90;;;;;;5067705;28;20148;-55
2024/01/29 11:53:14;;;;;;;8.35;1.63;;;8.00;99.90;;;;;;5068219;28;20041;-55
2024/01/29 11:55:40;;;;;;;7.05;1.98;;;8.00;99.90;;;;;;5067921;28;20079;-55
2024/01/29 11:58:13;;;;;;;5.50;1.50;;;8.00;99.90;;;;;;5066925;28;20109;-55
2024/01/29 12:00:43;;;;;;;5.65;1.67;;;8.10;99.90;;;;;;5068005;28;20039;-55
2024/01/29 12:03:09;;;;;;;8.48;2.42;;;8.10;99.90;;;;;;5068084;28;20048;-56
2024/01/29 12:05:35;;;;;;;6.82;2.47;;;8.10;99.90;;;;;;5067559;28;20025;-56
2024/01/29 12:08:02;;;;;;;4.63;1.75;;;8.10;99.90;;;;;;5067526;28;20106;-56
2024/01/29 12:10:27;;;;;;;5.88;1.83;;;8.10;99.90;;;;;;5067820;28;20179;-56
2024/01/29 12:12:53;;;;;;;5.75;1.50;;;8.10;99.90;;;;;;5067706;28;20290;-55
2024/01/29 12:15:19;;;;;;;6.75;1.65;;;8.00;99.90;;;;;;5067100;28;20025;-54
2024/01/29 12:17:46;;;;;;;4.88;1.75;;;8.10;99.90;;;;;;5067001;28;20112;-56
2024/01/29 12:20:12;;;;;;;6.70;1.58;;;8.10;99.90;;;;;;5066576;28;20032;-56
2024/01/29 12:22:38;;;;;;;4.68;1.40;;;8.10;99.90;;;;;;5067071;28;20115;-55
2024/01/29 12:25:07;;;;;;;7.45;1.70;;;8.10;99.90;;;;;;5066446;28;20094;-56
2024/01/29 12:27:33;;;;;;;6.05;2.08;;;8.10;99.90;;;;;;5066118;28;20322;-56
2024/01/29 12:29:59;;;;;;;3.67;1.20;;;8.10;99.90;;;;;;5067368;28;20059;-56
2024/01/29 12:32:25;;;;;;;5.70;1.63;;;8.10;99.90;;;;;;5067219;28;20028;-55
2024/01/29 12:34:51;;;;;;;3.63;1.45;;;8.10;99.90;;;;;;5067147;28;20021;-55
2024/01/29 12:37:21;;;;;;;6.25;1.40;;;8.10;99.90;;;;;;5066795;28;20834;-55
2024/01/29 12:39:56;;;;;;;6.97;1.38;;;8.00;99.90;;;;;;5067214;28;20087;-56
2024/01/29 12:42:22;;;;;;;5.50;1.73;;;8.10;99.90;;;;;;5065921;28;20033;-55
2024/01/29 12:44:48;;;;;;;6.07;1.67;;;8.10;99.90;;;;;;5067126;28;20025;-56
2024/01/29 12:47:20;;;;;;;4.72;1.60;;;8.10;99.90;;;;;;5065928;28;20033;-55
2024/01/29 12:49:46;;;;;;;6.90;1.95;;;8.10;99.90;;;;;;5066845;28;20092;-56